Time;durP1;ratioP1;P1;durP2;ratioP2;P2;SDS_P1;SDS_P2;PMS_P1;PMS_P2;Temp;Humidity;BMP_temperature;BMP_pressure;BME280_temperature;BME280_humidity;BME280_pressure;Samples;Min_cycle;Max_cycle;Signal;HPM_P1;HPM_P2
2022/06/21 00:00:37;;;;;;;9.07;1.77;;;7.10;99.90;;;;;;5030914;28;20389;-35
2022/06/21 00:03:09;;;;;;;10.25;3.10;;;7.00;99.90;;;;;;5030885;28;20049;-35
2022/06/21 00:05:42;;;;;;;5.60;1.95;;;7.00;99.90;;;;;;5028817;28;20041;-35
2022/06/21 00:08:23;;;;;;;8.02;2.28;;;7.10;99.90;;;;;;5030336;28;20465;-34
2022/06/21 00:10:51;;;;;;;8.80;2.17;;;7.10;99.90;;;;;;5029577;28;20481;-35
2022/06/21 00:13:23;;;;;;;8.90;2.30;;;7.00;99.90;;;;;;5030149;28;20359;-35
2022/06/21 00:15:52;;;;;;;4.65;2.35;;;6.90;99.90;;;;;;5030457;28;20095;-35
2022/06/21 00:18:20;;;;;;;8.05;1.90;;;6.90;99.90;;;;;;5030010;28;20104;-35
2022/06/21 00:20:47;;;;;;;8.48;2.45;;;6.90;99.90;;;;;;5030241;28;20059;-35
2022/06/21 00:23:16;;;;;;;9.80;2.60;;;6.90;99.90;;;;;;5029588;28;20053;-35
2022/06/21 00:25:42;;;;;;;14.80;2.72;;;8.30;99.90;;;;;;5030238;28;20042;-35
2022/06/21 00:28:08;;;;;;;8.88;2.20;;;7.00;99.90;;;;;;5030233;28;20162;-35
2022/06/21 00:30:33;;;;;;;8.52;2.42;;;7.00;99.90;;;;;;5030271;28;20047;-35
2022/06/21 00:32:59;;;;;;;13.00;2.60;;;7.00;99.90;;;;;;5030103;28;20045;-35
2022/06/21 00:35:27;;;;;;;8.25;3.08;;;6.90;99.90;;;;;;5029863;28;20617;-35
2022/06/21 00:37:53;;;;;;;8.40;2.17;;;7.00;99.90;;;;;;5030151;28;20168;-35
2022/06/21 00:40:31;;;;;;;8.88;2.97;;;6.90;99.90;;;;;;5028495;28;20049;-35
2022/06/21 00:43:12;;;;;;;13.70;3.88;;;7.00;99.90;;;;;;5029866;28;20052;-35
2022/06/21 00:45:44;;;;;;;10.05;2.75;;;6.90;99.90;;;;;;5029802;28;20076;-35
2022/06/21 00:48:46;;;;;;;8.93;3.40;;;6.80;99.90;;;;;;5029799;28;20203;-35
2022/06/21 00:51:12;;;;;;;;;;;6.90;99.90;;;;;;5029334;28;20089;-35
2022/06/21 00:53:43;;;;;;;11.82;3.20;;;6.80;99.90;;;;;;5029604;28;19921;-35
2022/06/21 00:56:29;;;;;;;6.30;2.53;;;6.70;99.90;;;;;;5029582;28;20045;-34
2022/06/21 00:58:55;;;;;;;7.35;2.92;;;6.70;99.90;;;;;;5029760;28;20046;-35
2022/06/21 01:01:26;;;;;;;6.47;2.03;;;6.70;99.90;;;;;;5029380;28;20048;-35
2022/06/21 01:03:53;;;;;;;6.15;2.17;;;6.60;99.90;;;;;;5029659;28;20045;-35
2022/06/21 01:06:23;;;;;;;8.48;2.25;;;7.10;99.90;;;;;;5029158;28;20404;-35
2022/06/21 01:08:54;;;;;;;5.15;2.00;;;7.40;99.90;;;;;;5029722;28;20393;-35
2022/06/21 01:11:25;;;;;;;7.22;2.28;;;6.90;99.90;;;;;;5028754;28;20053;-35
2022/06/21 01:13:53;;;;;;;2.67;1.10;;;6.60;99.90;;;;;;5029400;28;20060;-35
2022/06/21 01:16:20;;;;;;;3.42;1.75;;;6.60;99.90;;;;;;5027543;28;20099;-35
2022/06/21 01:18:47;;;;;;;3.05;2.22;;;6.60;99.90;;;;;;5029175;28;20107;-35
2022/06/21 01:21:16;;;;;;;4.25;2.30;;;6.60;99.90;;;;;;5028922;28;20088;-35
2022/06/21 01:24:03;;;;;;;4.00;1.85;;;6.60;99.90;;;;;;5029178;28;20096;-35
2022/06/21 01:26:31;;;;;;;2.78;1.73;;;6.40;99.90;;;;;;5028940;28;20048;-35
2022/06/21 01:28:59;;;;;;;2.38;1.23;;;6.50;99.90;;;;;;5029205;28;20050;-35
2022/06/21 01:31:25;;;;;;;2.88;1.33;;;6.50;99.90;;;;;;5028522;28;20176;-35
2022/06/21 01:33:51;;;;;;;4.22;2.72;;;7.00;99.90;;;;;;5028781;28;20037;-35
2022/06/21 01:36:31;;;;;;;3.22;1.33;;;6.70;99.90;;;;;;5028926;28;20723;-35
2022/06/21 01:39:04;;;;;;;3.13;1.70;;;6.40;99.90;;;;;;5027260;28;20051;-35
2022/06/21 01:41:54;;;;;;;4.13;1.95;;;6.90;99.90;;;;;;5028478;28;20037;-35
2022/06/21 01:44:30;;;;;;;5.03;1.90;;;6.40;99.90;;;;;;5028397;28;20686;-34
2022/06/21 01:46:57;;;;;;;7.10;3.00;;;6.60;99.90;;;;;;5028623;28;20037;-35
2022/06/21 01:49:28;;;;;;;7.47;2.88;;;6.50;99.90;;;;;;5028438;28;20048;-35
2022/06/21 01:51:58;;;;;;;7.50;3.50;;;6.70;99.90;;;;;;5028254;28;20095;-35
2022/06/21 01:54:29;;;;;;;4.03;2.42;;;6.50;99.90;;;;;;5028540;28;20579;-34
2022/06/21 01:56:55;;;;;;;9.55;2.80;;;6.30;99.90;;;;;;5028552;28;20049;-34
2022/06/21 01:59:30;;;;;;;9.07;3.13;;;6.50;99.90;;;;;;5028575;28;20808;-34
2022/06/21 02:02:10;;;;;;;8.05;3.35;;;6.40;99.90;;;;;;5028512;28;20045;-35
2022/06/21 02:05:00;;;;;;;11.57;4.70;;;6.10;99.90;;;;;;5028662;28;20049;-35
2022/06/21 02:07:31;;;;;;;12.50;4.32;;;6.30;99.90;;;;;;5027465;28;20057;-35
2022/06/21 02:10:12;;;;;;;7.25;3.28;;;6.30;99.90;;;;;;5027954;28;20122;-35
2022/06/21 02:12:53;;;;;;;12.00;4.65;;;6.20;99.90;;;;;;5028082;28;20045;-34
2022/06/21 02:15:39;;;;;;;8.40;2.97;;;6.10;99.90;;;;;;5027944;28;20562;-35
2022/06/21 02:18:11;;;;;;;5.25;2.80;;;6.10;99.90;;;;;;5028613;28;20053;-34
2022/06/21 02:20:55;;;;;;;7.32;3.10;;;6.40;99.90;;;;;;5028182;28;20119;-35
2022/06/21 02:23:22;;;;;;;7.03;3.10;;;6.20;99.90;;;;;;5026627;28;20059;-35
2022/06/21 02:25:51;;;;;;;7.72;3.42;;;6.10;99.90;;;;;;5027978;28;20411;-35
2022/06/21 02:28:19;;;;;;;10.75;3.40;;;6.10;99.90;;;;;;5028186;28;20511;-35
2022/06/21 02:30:47;;;;;;;14.23;4.40;;;6.10;99.90;;;;;;5027916;28;20088;-35
2022/06/21 02:33:28;;;;;;;6.70;2.70;;;6.10;99.90;;;;;;5028080;28;20112;-35
2022/06/21 02:36:15;;;;;;;7.93;3.80;;;6.10;99.90;;;;;;5027968;28;20080;-35
2022/06/21 02:38:54;;;;;;;10.73;4.53;;;6.20;99.90;;;;;;5027747;28;20435;-35
2022/06/21 02:41:35;;;;;;;8.15;4.63;;;6.30;99.90;;;;;;5028464;28;20048;-35
2022/06/21 02:44:16;;;;;;;9.60;4.32;;;6.40;99.90;;;;;;5028223;28;20041;-35
2022/06/21 02:47:04;;;;;;;13.48;6.00;;;6.30;99.90;;;;;;5027711;28;20068;-35
2022/06/21 02:49:43;;;;;;;12.40;5.13;;;7.20;99.90;;;;;;5027997;28;20039;-35
2022/06/21 02:52:18;;;;;;;9.02;4.57;;;6.20;99.90;;;;;;5027249;28;20091;-34
2022/06/21 02:54:47;;;;;;;6.50;3.42;;;6.30;99.90;;;;;;5027845;28;20433;-34
2022/06/21 02:57:27;;;;;;;12.45;4.63;;;6.40;99.90;;;;;;5027845;28;20469;-35
2022/06/21 02:59:56;;;;;;;11.68;5.50;;;7.10;99.90;;;;;;5027831;28;20476;-35
2022/06/21 03:02:25;;;;;;;15.63;6.75;;;6.50;99.90;;;;;;5027720;28;20438;-35
2022/06/21 03:04:55;;;;;;;12.18;5.65;;;6.40;99.90;;;;;;5026768;28;20039;-35
2022/06/21 03:07:26;;;;;;;12.07;5.20;;;6.50;99.90;;;;;;5027539;28;20053;-35
2022/06/21 03:09:53;;;;;;;10.05;5.30;;;6.80;99.90;;;;;;5026809;28;20052;-35
2022/06/21 03:12:23;;;;;;;9.07;4.50;;;6.60;99.90;;;;;;5027673;28;20038;-35
2022/06/21 03:14:52;;;;;;;11.63;4.60;;;6.40;99.90;;;;;;5027315;28;20389;-35
2022/06/21 03:17:23;;;;;;;8.80;4.60;;;6.50;99.90;;;;;;5027201;28;20049;-35
2022/06/21 03:19:52;;;;;;;7.95;3.63;;;6.70;99.90;;;;;;5027451;28;20536;-35
2022/06/21 03:22:26;;;;;;;6.60;3.88;;;6.50;99.90;;;;;;5027649;28;20135;-34
2022/06/21 03:24:55;;;;;;;5.68;3.80;;;6.50;99.90;;;;;;5028158;28;20045;-35
2022/06/21 03:27:35;;;;;;;7.53;4.03;;;6.50;99.90;;;;;;5027592;28;20052;-35
2022/06/21 03:30:01;;;;;;;7.80;3.85;;;6.30;99.90;;;;;;5026425;28;20385;-35
2022/06/21 03:32:32;;;;;;;9.40;4.20;;;6.50;99.90;;;;;;5026995;28;20041;-35
2022/06/21 03:35:00;;;;;;;6.45;3.65;;;6.60;99.90;;;;;;5027117;28;20056;-35
2022/06/21 03:37:27;;;;;;;7.50;3.58;;;6.60;99.90;;;;;;5027287;28;20045;-34
2022/06/21 03:42:41;;;;;;;10.23;3.20;;;6.70;99.90;;;;;;5026983;28;20103;-35
2022/06/21 03:45:17;;;;;;;11.07;4.75;;;6.80;99.90;;;;;;5027219;28;20053;-35
2022/06/21 03:47:57;;;;;;;8.77;4.53;;;6.90;99.90;;;;;;5027150;28;20042;-35
2022/06/21 03:50:33;;;;;;;11.90;5.18;;;7.10;99.90;;;;;;5027201;28;20048;-35
2022/06/21 03:53:03;;;;;;;8.07;4.68;;;6.90;99.90;;;;;;5027465;28;20075;-34
2022/06/21 03:55:36;;;;;;;11.52;6.05;;;6.90;99.90;;;;;;5027269;28;20049;-34
2022/06/21 03:58:05;;;;;;;10.60;5.85;;;7.10;99.90;;;;;;5027401;28;20049;-35
2022/06/21 04:00:37;;;;;;;9.63;6.10;;;7.00;99.90;;;;;;5027284;28;20080;-35
2022/06/21 04:03:24;;;;;;;11.07;6.13;;;7.30;99.90;;;;;;5026928;28;20496;-36
2022/06/21 04:06:14;;;;;;;14.00;6.50;;;7.20;99.90;;;;;;5002258;28;20052;-36
2022/06/21 04:09:01;;;;;;;10.38;5.78;;;7.30;99.90;;;;;;5022298;28;20060;-38
2022/06/21 04:11:46;;;;;;;10.43;6.80;;;7.80;99.90;;;;;;5025428;28;20120;-37
2022/06/21 04:14:34;;;;;;;12.50;6.90;;;7.50;99.90;;;;;;5025294;28;20404;-37
2022/06/21 04:17:14;;;;;;;11.98;6.55;;;7.70;99.90;;;;;;5029195;28;20068;-37
2022/06/21 04:20:06;;;;;;;12.25;7.32;;;7.80;99.90;;;;;;5028968;28;20045;-36
2022/06/21 04:22:45;;;;;;;15.33;7.50;;;8.10;99.90;;;;;;5029102;28;20057;-38
2022/06/21 04:25:21;;;;;;;12.15;6.55;;;8.50;99.90;;;;;;5029021;28;20091;-37
2022/06/21 04:28:06;;;;;;;9.13;6.80;;;8.90;99.90;;;;;;5028952;28;20057;-36
2022/06/21 04:30:35;;;;;;;14.88;7.45;;;8.70;99.90;;;;;;5030946;28;20049;-36
2022/06/21 04:33:14;;;;;;;12.73;6.10;;;8.90;99.90;;;;;;5030540;28;20156;-36
2022/06/21 04:36:08;;;;;;;9.45;5.32;;;9.00;99.90;;;;;;5030635;28;20128;-36
2022/06/21 04:38:47;;;;;;;8.45;4.63;;;9.20;99.90;;;;;;5030838;28;20566;-36
2022/06/21 04:41:50;;;;;;;8.88;4.45;;;9.30;99.90;;;;;;5030654;28;20138;-36
2022/06/21 04:44:29;;;;;;;10.63;4.40;;;9.30;99.90;;;;;;5030019;28;20057;-36
2022/06/21 04:47:11;;;;;;;7.18;4.53;;;9.60;99.90;;;;;;5029992;28;20041;-36
2022/06/21 04:49:46;;;;;;;12.15;5.68;;;9.40;99.90;;;;;;5030198;28;20052;-36
2022/06/21 04:52:39;;;;;;;9.02;4.63;;;9.90;99.90;;;;;;5029555;28;20092;-36
2022/06/21 04:55:05;;;;;;;8.82;4.60;;;9.80;99.90;;;;;;5027990;28;20156;-37
2022/06/21 04:57:32;;;;;;;10.52;4.40;;;9.60;99.90;;;;;;5030121;28;20525;-36
2022/06/21 05:00:06;;;;;;;10.43;5.30;;;9.90;99.90;;;;;;5029919;28;20115;-36
2022/06/21 05:02:46;;;;;;;12.57;5.47;;;10.20;99.90;;;;;;5029417;28;20091;-36
2022/06/21 05:05:20;;;;;;;11.02;5.15;;;10.40;99.90;;;;;;5029575;28;20596;-36
2022/06/21 05:08:03;;;;;;;9.05;5.15;;;10.70;99.90;;;;;;5029477;28;20049;-37
2022/06/21 05:10:34;;;;;;;8.70;4.75;;;10.70;99.90;;;;;;5029243;28;20045;-36
2022/06/21 05:13:04;;;;;;;11.68;5.07;;;11.00;99.90;;;;;;5029477;28;20397;-36
2022/06/21 05:15:38;;;;;;;8.48;4.22;;;11.00;99.90;;;;;;5029784;28;20076;-36
2022/06/21 05:18:10;;;;;;;10.68;4.30;;;11.30;99.90;;;;;;5029407;28;20045;-36
2022/06/21 05:20:39;;;;;;;10.93;4.55;;;11.50;99.90;;;;;;5029874;28;20088;-36
2022/06/21 05:23:07;;;;;;;6.50;4.50;;;11.70;99.90;;;;;;5029082;28;20061;-36
2022/06/21 05:25:43;;;;;;;7.47;4.18;;;12.00;99.90;;;;;;5029898;28;20079;-36
2022/06/21 05:28:25;;;;;;;8.95;4.93;;;12.30;99.90;;;;;;5028229;28;20497;-36
2022/06/21 05:30:56;;;;;;;6.75;4.03;;;12.50;99.90;;;;;;5028730;28;20054;-36
2022/06/21 05:33:32;;;;;;;10.77;3.95;;;12.60;99.90;;;;;;5028958;28;20505;-36
2022/06/21 05:35:59;;;;;;;6.95;3.33;;;12.80;99.90;;;;;;5028995;28;20072;-37
2022/06/21 05:38:28;;;;;;;7.07;3.17;;;13.00;99.90;;;;;;5029001;28;20053;-36
2022/06/21 05:41:30;;;;;;;6.45;3.30;;;13.20;99.90;;;;;;5028834;28;20099;-37
2022/06/21 05:44:32;;;;;;;6.60;3.30;;;13.50;99.90;;;;;;5028998;28;20099;-38
2022/06/21 05:47:07;;;;;;;7.20;3.38;;;13.80;99.90;;;;;;5028337;28;20287;-37
2022/06/21 05:49:36;;;;;;;7.05;2.63;;;14.10;99.90;;;;;;5029165;28;20037;-37
2022/06/21 05:52:05;;;;;;;8.20;3.15;;;14.10;99.90;;;;;;5029117;28;20037;-37
2022/06/21 05:54:35;;;;;;;5.97;2.33;;;14.30;99.90;;;;;;5029448;28;20041;-37
2022/06/21 05:57:02;;;;;;;7.13;2.00;;;14.60;99.90;;;;;;5029069;28;20073;-37
2022/06/21 05:59:28;;;;;;;4.78;2.10;;;14.80;99.90;;;;;;5029155;28;20439;-36
2022/06/21 06:02:15;;;;;;;4.97;1.85;;;14.90;99.90;;;;;;5028683;28;20050;-37
2022/06/21 06:04:55;;;;;;;5.93;1.70;;;15.10;99.90;;;;;;5028398;28;20041;-37
2022/06/21 06:07:41;;;;;;;6.03;2.13;;;15.60;99.90;;;;;;5029014;28;20128;-36
2022/06/21 06:10:08;;;;;;;5.60;1.80;;;16.00;99.90;;;;;;5028555;28;20049;-37
2022/06/21 06:12:41;;;;;;;4.82;1.55;;;16.70;99.90;;;;;;5028509;28;20080;-37
2022/06/21 06:15:10;;;;;;;;;;;17.90;99.90;;;;;;5028732;28;20439;-37
2022/06/21 06:17:52;;;;;;;7.00;1.17;;;18.10;99.90;;;;;;5028293;28;19929;-37
2022/06/21 06:20:34;;;;;;;6.45;1.33;;;18.30;99.90;;;;;;5028424;28;20397;-37
2022/06/21 06:23:08;;;;;;;8.23;2.00;;;19.90;99.90;;;;;;5027962;28;20062;-37
2022/06/21 06:25:46;;;;;;;5.40;1.30;;;18.90;99.90;;;;;;5028537;28;20046;-37
2022/06/21 06:28:33;;;;;;;6.15;0.82;;;19.40;99.90;;;;;;5028054;28;20045;-38
2022/06/21 06:31:05;;;;;;;2.88;1.10;;;19.50;99.90;;;;;;5027854;28;20045;-38
2022/06/21 06:33:45;;;;;;;2.92;0.60;;;20.90;99.90;;;;;;5027749;28;20071;-38
2022/06/21 06:36:15;;;;;;;4.18;0.50;;;21.90;98.00;;;;;;5027635;28;20567;-38
2022/06/21 06:38:41;;;;;;;3.30;0.47;;;22.10;95.60;;;;;;5027072;28;20045;-38
2022/06/21 06:41:21;;;;;;;2.88;0.60;;;23.30;91.50;;;;;;5026131;28;20493;-38
2022/06/21 06:43:53;;;;;;;3.15;0.50;;;25.90;81.40;;;;;;5027911;28;20104;-38
2022/06/21 06:46:33;;;;;;;3.47;0.73;;;27.70;74.70;;;;;;5027606;28;20076;-38
2022/06/21 06:49:20;;;;;;;3.50;0.35;;;27.50;69.70;;;;;;5027598;28;20130;-38
2022/06/21 06:52:27;;;;;;;3.05;0.30;;;29.40;62.30;;;;;;5028141;28;20041;-38
2022/06/21 06:55:16;;;;;;;2.92;0.60;;;29.70;60.80;;;;;;5026337;28;20096;-38
2022/06/21 06:57:54;;;;;;;3.88;0.40;;;31.20;59.20;;;;;;5027702;28;20559;-38
2022/06/21 07:00:36;;;;;;;2.60;0.40;;;32.10;57.00;;;;;;5027535;28;20081;-38
2022/06/21 07:03:12;;;;;;;3.92;0.80;;;31.90;53.70;;;;;;5027666;28;20397;-38
2022/06/21 07:05:43;;;;;;;5.15;0.70;;;32.70;52.50;;;;;;5027998;28;20091;-38
2022/06/21 07:08:32;;;;;;;3.38;0.73;;;33.60;52.40;;;;;;5027154;28;20049;-38
2022/06/21 07:11:02;;;;;;;4.55;0.75;;;34.30;51.20;;;;;;5026879;28;20049;-38
2022/06/21 07:13:28;;;;;;;4.72;0.77;;;34.90;49.60;;;;;;5027631;28;20084;-39
2022/06/21 07:16:00;;;;;;;3.13;0.82;;;35.20;47.80;;;;;;5027619;28;20052;-38
2022/06/21 07:18:32;;;;;;;4.25;0.82;;;35.50;46.60;;;;;;5027909;28;20449;-39
2022/06/21 07:20:59;;;;;;;3.97;0.88;;;35.50;45.90;;;;;;5027251;28;20388;-38
2022/06/21 07:23:27;;;;;;;4.63;0.70;;;35.50;52.00;;;;;;5027209;28;20053;-39
2022/06/21 07:25:56;;;;;;;3.10;0.57;;;36.40;51.80;;;;;;5027588;28;20100;-39
2022/06/21 07:28:44;;;;;;;4.50;0.50;;;36.90;44.90;;;;;;5026906;28;20053;-39
2022/06/21 07:31:22;;;;;;;2.80;0.43;;;37.60;44.70;;;;;;5026469;28;20053;-39
2022/06/21 07:33:50;;;;;;;4.57;0.40;;;38.40;43.20;;;;;;5026980;28;20045;-39
2022/06/21 07:36:27;;;;;;;5.72;0.43;;;38.40;42.20;;;;;;5026723;28;20504;-39
2022/06/21 07:38:59;;;;;;;3.40;0.40;;;38.60;41.80;;;;;;5026799;28;20037;-39
2022/06/21 07:41:40;;;;;;;2.75;0.45;;;39.10;41.30;;;;;;5026951;28;20599;-39
2022/06/21 07:44:15;;;;;;;;;;;39.30;40.40;;;;;;5027162;28;20527;-39
2022/06/21 07:46:46;;;;;;;3.83;0.38;;;40.10;44.90;;;;;;5027160;28;20741;-39
2022/06/21 07:49:50;;;;;;;2.72;0.40;;;39.00;40.30;;;;;;5025859;28;20534;-39
2022/06/21 07:52:33;;;;;;;4.88;0.47;;;37.20;41.40;;;;;;5028134;28;20138;-39
2022/06/21 07:55:04;;;;;;;3.03;0.40;;;37.40;41.00;;;;;;5030975;28;20064;-39
2022/06/21 07:57:38;;;;;;;1.63;0.32;;;37.50;40.50;;;;;;5031394;28;20451;-39
2022/06/21 08:00:11;;;;;;;3.38;0.38;;;38.20;40.80;;;;;;5031159;28;20459;-39
2022/06/21 08:08:37;;;;;;;3.40;0.30;;;39.20;40.20;;;;;;5030536;28;20508;-39
2022/06/21 08:11:25;;;;;;;1.58;0.30;;;38.10;39.00;;;;;;5030132;28;20049;-39
2022/06/21 08:13:51;;;;;;;2.67;0.20;;;36.80;40.10;;;;;;5030401;28;20045;-39
2022/06/21 08:16:27;;;;;;;1.05;0.20;;;35.20;40.40;;;;;;5030572;28;20041;-39
2022/06/21 08:19:14;;;;;;;2.20;0.30;;;33.70;41.30;;;;;;5031015;28;20045;-39
2022/06/21 08:21:52;;;;;;;3.78;0.30;;;32.10;42.40;;;;;;5031094;28;20569;-38
2022/06/21 08:24:37;;;;;;;2.35;0.30;;;30.40;44.20;;;;;;5030817;28;20049;-38
2022/06/21 08:27:18;;;;;;;4.03;0.50;;;29.10;45.80;;;;;;5031119;28;20042;-38
2022/06/21 08:29:53;;;;;;;3.00;0.35;;;30.20;47.40;;;;;;5030698;28;20041;-39
2022/06/21 08:32:53;;;;;;;2.67;0.38;;;29.60;46.40;;;;;;5030196;28;20045;-39
2022/06/21 08:35:28;;;;;;;2.40;0.30;;;30.90;47.10;;;;;;5029686;28;20103;-38
2022/06/21 08:38:13;;;;;;;3.35;0.52;;;32.90;46.10;;;;;;5030110;28;20045;-39
2022/06/21 08:40:48;;;;;;;3.17;0.40;;;34.10;44.30;;;;;;5029672;28;20465;-39
2022/06/21 08:43:17;;;;;;;6.32;0.35;;;35.90;42.70;;;;;;5029792;28;20134;-39
2022/06/21 08:46:09;;;;;;;4.63;0.40;;;36.90;41.80;;;;;;5029292;28;20037;-39
2022/06/21 08:49:08;;;;;;;2.20;0.22;;;37.90;40.70;;;;;;5029899;28;20049;-40
2022/06/21 08:52:11;;;;;;;2.15;0.20;;;39.00;39.70;;;;;;5029617;28;20497;-40
2022/06/21 08:54:48;;;;;;;1.92;0.20;;;39.20;38.80;;;;;;5029512;28;20049;-40
2022/06/21 08:57:48;;;;;;;2.83;0.38;;;39.80;38.10;;;;;;5028041;28;20045;-40
2022/06/21 09:00:48;;;;;;;2.10;0.40;;;41.10;38.30;;;;;;5029204;28;20045;-40
2022/06/21 09:03:23;;;;;;;2.72;0.40;;;41.30;38.00;;;;;;5028809;28;20045;-40
2022/06/21 09:06:00;;;;;;;1.75;0.20;;;42.30;38.00;;;;;;5029440;28;20034;-41
2022/06/21 09:08:50;;;;;;;5.55;0.60;;;42.10;37.40;;;;;;5029399;28;20613;-40
2022/06/21 09:11:26;;;;;;;5.03;0.40;;;41.50;37.20;;;;;;5028498;28;20049;-39
2022/06/21 09:14:10;;;;;;;2.42;0.22;;;41.50;36.80;;;;;;5029254;28;20124;-40
2022/06/21 09:17:04;;;;;;;2.72;0.30;;;41.20;35.60;;;;;;5029460;28;20053;-39
2022/06/21 09:19:43;;;;;;;2.83;0.40;;;39.20;36.80;;;;;;5029223;28;20059;-39
2022/06/21 09:22:20;;;;;;;3.53;0.40;;;37.20;37.10;;;;;;5028669;28;20052;-39
2022/06/21 09:25:08;;;;;;;2.65;0.40;;;35.20;38.40;;;;;;5028917;28;20081;-39
2022/06/21 09:27:55;;;;;;;3.75;0.38;;;33.50;40.00;;;;;;5028797;28;20481;-39
2022/06/21 09:30:32;;;;;;;3.42;0.30;;;32.00;41.00;;;;;;5028815;28;20049;-39
2022/06/21 09:33:22;;;;;;;4.82;0.47;;;30.80;41.40;;;;;;5029270;28;20048;-39
2022/06/21 09:36:02;;;;;;;2.17;0.28;;;30.50;44.00;;;;;;5028798;28;20045;-38
2022/06/21 09:38:59;;;;;;;4.32;0.30;;;32.10;44.10;;;;;;5028914;28;20056;-39
2022/06/21 09:41:55;;;;;;;4.88;0.52;;;34.20;43.30;;;;;;5028846;28;20116;-41
2022/06/21 09:44:27;;;;;;;1.73;0.35;;;35.80;39.90;;;;;;5027640;28;20053;-39
2022/06/21 09:47:10;;;;;;;2.35;0.28;;;37.00;39.90;;;;;;5028605;28;20492;-39
2022/06/21 09:49:35;;;;;;;1.40;0.30;;;37.80;37.80;;;;;;5028708;28;20033;-39
2022/06/21 09:52:15;;;;;;;2.03;0.35;;;37.50;37.40;;;;;;5028997;28;20124;-39
2022/06/21 09:55:31;;;;;;;2.78;0.30;;;37.10;39.10;;;;;;5029241;28;20041;-39
2022/06/21 09:58:22;;;;;;;2.90;0.30;;;36.20;38.30;;;;;;5043063;28;20049;-39
2022/06/21 10:01:19;;;;;;;0.90;0.15;;;36.20;38.30;;;;;;5028371;28;20041;-39
2022/06/21 10:04:05;;;;;;;3.42;0.40;;;37.50;40.20;;;;;;5026968;28;20041;-39
2022/06/21 10:06:59;;;;;;;3.75;0.40;;;38.00;37.90;;;;;;5028234;28;20045;-39
2022/06/21 10:09:36;;;;;;;2.55;0.30;;;36.90;38.70;;;;;;5027723;28;20049;-39
2022/06/21 10:12:33;;;;;;;1.85;0.13;;;37.00;40.80;;;;;;5028318;28;20071;-39
2022/06/21 10:15:05;;;;;;;3.78;0.32;;;37.40;39.50;;;;;;5040292;28;20057;-39
2022/06/21 10:17:51;;;;;;;2.00;0.28;;;36.40;48.80;;;;;;5026537;28;20073;-39
2022/06/21 10:20:57;;;;;;;4.05;0.60;;;35.80;38.60;;;;;;5027729;28;20546;-39
2022/06/21 10:23:47;;;;;;;1.88;0.10;;;34.50;39.40;;;;;;5027583;28;20061;-39
2022/06/21 10:26:16;;;;;;;3.08;0.35;;;32.70;50.50;;;;;;5028018;28;20092;-39
2022/06/21 10:29:16;;;;;;;2.10;0.30;;;31.50;47.50;;;;;;5027916;28;20053;-38
2022/06/21 10:31:51;;;;;;;2.13;0.30;;;30.80;41.60;;;;;;5027890;28;20103;-38
2022/06/21 10:34:46;;;;;;;4.22;0.28;;;30.10;42.40;;;;;;5027491;28;20530;-39
2022/06/21 10:37:23;;;;;;;2.80;0.57;;;30.60;44.80;;;;;;5027293;28;20477;-39
2022/06/21 10:39:56;;;;;;;2.55;0.50;;;31.50;41.80;;;;;;5026419;28;20096;-39
2022/06/21 10:42:50;;;;;;;4.10;0.50;;;31.20;41.80;;;;;;5027509;28;20038;-39
2022/06/21 10:45:35;;;;;;;4.20;0.20;;;30.30;42.30;;;;;;5027888;28;20392;-38
2022/06/21 10:48:13;;;;;;;2.65;0.30;;;29.40;44.90;;;;;;5027767;28;20049;-38
2022/06/21 10:50:55;;;;;;;5.53;0.30;;;28.60;46.70;;;;;;5027642;28;20385;-38
2022/06/21 10:53:29;;;;;;;;;;;28.00;52.10;;;;;;5028087;28;20045;-38
2022/06/21 10:59:25;;;;;;;2.42;0.20;;;26.60;48.20;;;;;;5027574;28;20060;-39
2022/06/21 11:02:28;;;;;;;3.72;0.40;;;26.40;49.60;;;;;;5027532;28;20129;-38
2022/06/21 11:05:10;;;;;;;4.10;0.50;;;25.80;46.70;;;;;;5025765;28;20045;-38
2022/06/21 11:07:58;;;;;;;3.30;0.20;;;25.50;50.00;;;;;;5027431;28;20115;-38
2022/06/21 11:10:35;;;;;;;1.65;0.17;;;25.20;50.20;;;;;;5025374;28;20137;-38
2022/06/21 11:13:06;;;;;;;2.63;0.25;;;25.00;51.00;;;;;;5027811;28;20041;-38
2022/06/21 11:16:01;;;;;;;3.08;0.52;;;24.80;50.50;;;;;;5025954;28;20045;-38
2022/06/21 11:19:06;;;;;;;2.95;0.35;;;24.60;52.30;;;;;;5027086;28;20094;-38
2022/06/21 11:21:37;;;;;;;2.00;0.30;;;24.30;52.30;;;;;;5027240;28;20068;-38
2022/06/21 11:24:24;;;;;;;3.28;0.32;;;24.00;53.10;;;;;;5027834;28;20068;-38
2022/06/21 11:27:17;;;;;;;1.58;0.17;;;23.80;53.20;;;;;;5032604;28;20056;-38
2022/06/21 11:29:54;;;;;;;2.15;0.30;;;23.70;53.60;;;;;;5033995;28;20072;-38
2022/06/21 11:32:34;;;;;;;5.60;0.40;;;23.40;53.80;;;;;;5034248;28;20091;-38
2022/06/21 11:35:09;;;;;;;2.83;0.20;;;23.20;54.40;;;;;;5034117;28;20072;-38
2022/06/21 11:37:49;;;;;;;4.32;0.28;;;23.00;56.30;;;;;;5032199;28;20053;-38
2022/06/21 11:40:40;;;;;;;2.35;0.30;;;22.70;56.00;;;;;;5033628;28;20489;-38
2022/06/21 11:43:29;;;;;;;2.25;0.22;;;22.60;56.80;;;;;;5034073;28;20388;-38
2022/06/21 11:46:09;;;;;;;3.13;0.30;;;;;;;;;;5033713;28;20536;-38
2022/06/21 11:49:01;;;;;;;3.53;0.38;;;22.50;54.60;;;;;;5033801;28;20049;-38
2022/06/21 11:51:51;;;;;;;2.53;0.82;;;22.30;56.80;;;;;;5033545;28;20496;-39
2022/06/21 11:54:39;;;;;;;2.13;0.40;;;22.20;57.30;;;;;;5034103;28;20095;-38
2022/06/21 11:57:52;;;;;;;3.53;0.40;;;22.00;57.00;;;;;;5033941;28;20050;-38
2022/06/21 12:00:29;;;;;;;2.25;0.45;;;22.00;59.40;;;;;;5030669;28;20073;-38
2022/06/21 12:02:58;;;;;;;5.35;0.20;;;22.10;59.90;;;;;;5033192;28;20643;-38
2022/06/21 12:06:03;;;;;;;1.90;0.30;;;22.30;59.00;;;;;;5033977;28;20454;-38
2022/06/21 12:08:42;;;;;;;1.17;0.10;;;22.70;60.40;;;;;;5033082;28;20053;-38
2022/06/21 12:11:36;;;;;;;3.58;0.25;;;23.00;59.10;;;;;;5032987;28;20128;-38
2022/06/21 12:14:04;;;;;;;5.43;0.28;;;23.10;57.10;;;;;;5033404;28;20045;-38
2022/06/21 12:16:51;;;;;;;3.53;0.40;;;23.20;57.90;;;;;;5033440;28;20087;-38
2022/06/21 12:19:24;;;;;;;1.50;0.60;;;23.20;57.80;;;;;;5033598;28;20045;-38
2022/06/21 12:22:19;;;;;;;4.07;0.50;;;23.10;57.60;;;;;;5033310;28;20645;-38
2022/06/21 12:24:45;;;;;;;3.42;0.50;;;23.20;57.70;;;;;;5033043;28;20156;-39
2022/06/21 12:27:11;;;;;;;4.57;0.40;;;23.10;57.60;;;;;;5033267;28;20136;-38
2022/06/21 12:29:37;;;;;;;3.70;0.38;;;23.10;57.50;;;;;;5031753;28;20041;-38
2022/06/21 12:32:07;;;;;;;3.95;0.30;;;22.90;57.40;;;;;;5033437;28;20180;-38
2022/06/21 12:34:42;;;;;;;1.92;0.30;;;22.80;56.90;;;;;;5033109;28;20056;-38
2022/06/21 12:37:21;;;;;;;1.17;0.20;;;22.80;57.70;;;;;;5030833;28;20049;-38
2022/06/21 12:39:51;;;;;;;2.88;0.30;;;22.90;58.60;;;;;;5029911;28;20472;-38
2022/06/21 12:42:29;;;;;;;1.73;0.13;;;22.90;58.10;;;;;;5030033;28;20041;-38
2022/06/21 12:45:20;;;;;;;3.63;0.35;;;23.00;59.30;;;;;;5030142;28;20057;-38
2022/06/21 12:48:13;;;;;;;2.63;0.30;;;23.00;57.20;;;;;;5029885;28;20041;-38
2022/06/21 12:50:39;;;;;;;1.58;0.20;;;23.10;57.50;;;;;;5029820;28;20104;-38
2022/06/21 12:53:29;;;;;;;3.40;0.20;;;23.10;58.00;;;;;;5029656;28;20081;-38
2022/06/21 12:56:10;;;;;;;3.20;0.20;;;23.00;58.20;;;;;;5029896;28;20049;-38
2022/06/21 12:58:55;;;;;;;2.75;0.30;;;22.90;58.80;;;;;;5029841;28;20045;-38
2022/06/21 13:01:36;;;;;;;2.75;0.20;;;22.60;58.40;;;;;;5029428;28;20049;-38
2022/06/21 13:04:25;;;;;;;1.37;0.20;;;22.40;59.10;;;;;;5029908;28;20064;-38
2022/06/21 13:07:28;;;;;;;2.83;0.30;;;22.60;59.40;;;;;;5029994;28;20100;-39
2022/06/21 13:09:53;;;;;;;5.15;0.30;;;22.40;60.70;;;;;;5028904;28;20037;-38
2022/06/21 13:12:54;;;;;;;2.65;0.30;;;22.60;60.20;;;;;;5029394;28;20048;-38
2022/06/21 13:15:33;;;;;;;2.20;0.30;;;22.60;59.00;;;;;;5030008;28;20041;-38
2022/06/21 13:18:50;;;;;;;1.83;0.28;;;22.80;59.20;;;;;;5029817;28;20173;-38
2022/06/21 13:21:37;;;;;;;3.45;0.43;;;22.90;57.50;;;;;;5028179;28;20047;-38
2022/06/21 13:24:21;;;;;;;1.10;0.10;;;23.00;57.10;;;;;;5029413;28;20080;-38
2022/06/21 13:27:05;;;;;;;1.38;0.50;;;23.00;57.90;;;;;;5029199;28;20077;-38
2022/06/21 13:30:03;;;;;;;3.25;0.50;;;23.10;57.60;;;;;;5029380;28;20049;-38
2022/06/21 13:32:42;;;;;;;3.53;0.90;;;23.20;57.60;;;;;;5028467;28;20085;-38
2022/06/21 13:35:20;;;;;;;2.47;0.52;;;23.30;57.90;;;;;;5029918;28;20112;-38
2022/06/21 13:37:53;;;;;;;4.45;0.20;;;23.30;57.30;;;;;;5028956;28;20049;-38
2022/06/21 13:40:33;;;;;;;2.10;0.40;;;23.40;58.20;;;;;;5029228;28;20034;-38
2022/06/21 13:42:59;;;;;;;3.55;0.50;;;23.50;57.00;;;;;;5028619;28;20493;-38
2022/06/21 13:45:33;;;;;;;2.22;0.28;;;23.50;56.70;;;;;;5028752;28;20041;-38
2022/06/21 13:48:06;;;;;;;3.35;0.30;;;23.50;56.20;;;;;;5027873;28;20052;-38
2022/06/21 13:50:56;;;;;;;4.05;0.40;;;23.60;55.40;;;;;;5028962;28;20332;-38
2022/06/21 13:53:47;;;;;;;2.95;0.60;;;23.60;54.80;;;;;;5028595;28;20120;-39
2022/06/21 13:56:30;;;;;;;1.55;0.20;;;23.30;54.90;;;;;;5028754;28;20045;-38
2022/06/21 13:59:01;;;;;;;1.17;0.22;;;23.10;54.30;;;;;;5028063;28;20065;-38
2022/06/21 14:01:34;;;;;;;1.02;0.17;;;23.10;56.10;;;;;;5028720;28;20045;-39